Time;durP1;ratioP1;P1;durP2;ratioP2;P2;SDS_P1;SDS_P2;PMS_P1;PMS_P2;Temp;Humidity;BMP_temperature;BMP_pressure;BME280_temperature;BME280_humidity;BME280_pressure;Samples;Min_cycle;Max_cycle;Signal;HPM_P1;HPM_P2
2021/08/23 00:02:35;;;;;;;1.82;1.50;;;;;;;21.43;52.83;100286.70;2392314;82;26299;-79
2021/08/23 00:05:56;;;;;;;3.75;1.42;;;;;;;21.61;52.45;100293.81;2390874;82;25749;-76
2021/08/23 00:09:19;;;;;;;1.55;1.40;;;;;;;21.66;52.30;100302.06;2387682;81;25674;-77
2021/08/23 00:12:40;;;;;;;2.22;1.60;;;;;;;21.68;52.15;100279.49;2392190;82;25189;-76
2021/08/23 00:16:00;;;;;;;2.75;1.30;;;;;;;21.79;51.92;100292.50;2391377;82;25679;-81
2021/08/23 00:19:23;;;;;;;1.82;1.30;;;;;;;21.76;51.89;100289.45;2392163;82;25657;-76
2021/08/23 00:22:51;;;;;;;1.72;1.37;;;;;;;21.84;51.83;100301.23;2388230;81;25922;-75
2021/08/23 00:26:15;;;;;;;3.03;1.47;;;;;;;21.87;51.62;100286.57;2391582;81;25904;-80
2021/08/23 00:30:07;;;;;;;2.45;1.50;;;;;;;21.87;51.76;100280.80;2388778;82;25186;-76
2021/08/23 00:33:28;;;;;;;1.90;1.55;;;;;;;21.93;51.43;100281.08;2383913;82;25590;-78
2021/08/23 00:36:52;;;;;;;2.12;1.60;;;;;;;21.91;51.39;100266.54;2390264;82;25897;-76
2021/08/23 00:40:13;;;;;;;5.12;1.40;;;;;;;21.92;51.19;100266.08;2391338;82;25574;-76
2021/08/23 00:43:34;;;;;;;4.03;1.80;;;;;;;21.93;51.46;100270.47;2387660;82;26565;-75
2021/08/23 00:46:57;;;;;;;3.90;1.67;;;;;;;21.98;51.21;100273.89;2394997;82;25657;-76
2021/08/23 00:50:18;;;;;;;2.55;1.40;;;;;;;22.01;51.19;100281.78;2397140;81;25629;-80
2021/08/23 00:53:40;;;;;;;2.02;1.50;;;;;;;22.07;51.20;100290.93;2396711;82;25634;-77
2021/08/23 00:57:13;;;;;;;2.27;1.62;;;;;;;22.14;51.09;100299.16;2376178;82;25747;-77
2021/08/23 01:00:41;;;;;;;2.98;1.72;;;;;;;22.21;51.00;100294.59;2378082;82;26395;-83
2021/08/23 01:04:08;;;;;;;1.87;1.30;;;;;;;22.21;50.92;100287.05;2398798;82;25695;-78
2021/08/23 01:08:05;;;;;;;4.30;1.57;;;;;;;22.14;50.94;100291.19;2398506;82;25589;-77
2021/08/23 01:11:28;;;;;;;3.37;1.40;;;;;;;22.12;51.05;100285.49;2362433;83;25704;-76
2021/08/23 01:14:59;;;;;;;1.90;1.52;;;;;;;22.06;51.22;100281.66;2362689;83;25741;-76
2021/08/23 01:18:26;;;;;;;1.50;1.40;;;;;;;22.03;51.30;100281.73;2339567;83;26597;-76
2021/08/23 01:21:51;;;;;;;1.95;1.47;;;;;;;22.03;51.42;100285.25;2363657;83;25670;-77
2021/08/23 01:25:16;;;;;;;1.37;1.17;;;;;;;22.04;51.55;100275.50;2363122;83;25639;-77
2021/08/23 01:29:00;;;;;;;2.27;1.35;;;;;;;22.05;51.57;100279.92;2361732;83;25564;-76
2021/08/23 01:32:39;;;;;;;1.50;1.35;;;;;;;22.00;51.61;100275.17;2361048;83;25645;-76
2021/08/23 01:36:07;;;;;;;2.00;1.50;;;;;;;21.89;51.78;100274.12;2332255;83;25667;-77
2021/08/23 01:39:38;;;;;;;1.87;1.25;;;;;;;21.83;52.02;100276.91;2373172;79;25489;-77
2021/08/23 01:43:00;;;;;;;1.42;1.22;;;;;;;21.87;52.12;100278.15;2351427;82;25635;-76
2021/08/23 01:46:21;;;;;;;3.85;1.37;;;;;;;21.87;52.15;100267.99;2415787;81;25679;-77
2021/08/23 01:49:42;;;;;;;2.83;1.10;;;;;;;21.80;52.23;100261.96;2434336;79;25614;-82
2021/08/23 01:53:03;;;;;;;3.47;1.85;;;;;;;21.72;52.37;100253.76;2439336;81;25566;-79
2021/08/23 01:56:29;;;;;;;1.80;1.10;;;;;;;21.60;52.58;100253.16;2440401;81;25649;-76
2021/08/23 01:59:50;;;;;;;2.15;1.35;;;;;;;21.59;52.81;100251.84;2432874;80;25893;-78
2021/08/23 02:03:11;;;;;;;3.85;1.25;;;;;;;21.55;52.84;100259.46;2441066;80;26263;-76
2021/08/23 02:06:33;;;;;;;1.82;1.50;;;;;;;21.54;53.00;100255.94;2441051;81;25718;-76
2021/08/23 02:09:56;;;;;;;3.22;1.52;;;;;;;21.51;53.03;100241.88;2413230;81;25617;-76
2021/08/23 02:13:17;;;;;;;2.10;1.02;;;;;;;21.49;53.16;100247.20;2394755;82;25631;-76
2021/08/23 02:16:41;;;;;;;2.25;1.95;;;;;;;21.51;53.21;100249.84;2396510;82;25789;-75
2021/08/23 02:20:06;;;;;;;1.47;1.30;;;;;;;21.50;53.19;100253.38;2397784;81;25667;-76
2021/08/23 02:23:28;;;;;;;2.42;1.32;;;;;;;21.50;53.16;100258.26;2398687;82;25165;-76
2021/08/23 02:26:50;;;;;;;5.40;1.40;;;;;;;21.46;53.21;100268.49;2393542;82;25993;-76
2021/08/23 02:30:12;;;;;;;1.10;1.00;;;;;;;21.42;53.20;100261.06;2397028;81;25610;-76
2021/08/23 02:33:33;;;;;;;3.02;1.57;;;;;;;21.42;53.26;100264.17;2396849;81;25460;-79
2021/08/23 02:36:54;;;;;;;2.12;1.30;;;;;;;21.45;53.19;100267.63;2396992;82;25784;-76
2021/08/23 02:40:15;;;;;;;1.75;1.47;;;;;;;21.48;53.11;100256.08;2398894;82;25685;-75
2021/08/23 02:43:38;;;;;;;1.80;1.25;;;;;;;21.45;53.07;100262.78;2434045;81;26285;-75
2021/08/23 02:47:02;;;;;;;1.62;1.15;;;;;;;21.43;53.04;100258.85;2441112;80;25809;-75
2021/08/23 02:50:23;;;;;;;1.90;1.55;;;;;;;21.34;52.99;100252.84;2440869;79;25572;-79
2021/08/23 02:53:44;;;;;;;1.80;1.50;;;;;;;21.29;53.10;100248.09;2440891;79;25648;-77
2021/08/23 02:57:05;;;;;;;3.25;1.22;;;;;;;21.28;53.11;100243.23;2434537;79;25580;-78
2021/08/23 03:00:26;;;;;;;5.35;1.62;;;;;;;21.27;53.05;100236.66;2434933;80;25621;-79
2021/08/23 03:03:47;;;;;;;1.90;1.60;;;;;;;21.22;53.09;100227.00;2436948;80;25704;-76
2021/08/23 03:07:08;;;;;;;1.65;1.50;;;;;;;21.19;53.15;100213.84;2441405;79;25683;-79
2021/08/23 03:10:29;;;;;;;2.10;1.42;;;;;;;21.16;53.15;100200.66;2438263;80;25629;-77
2021/08/23 03:14:09;;;;;;;2.17;1.22;;;;;;;21.13;53.03;100193.23;2440191;81;25620;-77
2021/08/23 03:17:30;;;;;;;7.37;1.37;;;;;;;21.08;52.98;100185.83;2435838;81;25604;-78
2021/08/23 03:20:51;;;;;;;3.75;1.70;;;;;;;21.05;52.85;100185.89;2441380;80;25641;-76
2021/08/23 03:24:12;;;;;;;2.62;1.50;;;;;;;20.80;52.77;100168.34;2439461;81;25586;-77
2021/08/23 03:27:33;;;;;;;1.82;1.40;;;;;;;20.80;52.77;100168.34;2435796;79;25557;-76
2021/08/23 03:30:55;;;;;;;1.55;1.30;;;;;;;20.88;52.83;100209.66;2440626;81;25145;-80
2021/08/23 03:34:16;;;;;;;3.58;1.57;;;;;;;20.78;52.84;100218.70;2440746;79;25561;-76
2021/08/23 03:37:39;;;;;;;6.78;1.70;;;;;;;20.79;52.92;100235.47;2441458;81;25604;-78
2021/08/23 03:41:00;;;;;;;4.12;1.72;;;;;;;20.77;52.86;100241.27;2439840;81;25625;-75
2021/08/23 03:44:21;;;;;;;1.95;1.37;;;;;;;20.69;52.87;100239.66;2439744;81;26419;-79
2021/08/23 03:47:42;;;;;;;3.08;1.50;;;;;;;20.67;52.92;100248.52;2445566;79;25694;-76
2021/08/23 03:51:03;;;;;;;2.40;1.30;;;;;;;20.66;52.87;100251.63;2441440;79;26085;-81
2021/08/23 03:54:24;;;;;;;2.92;1.57;;;;;;;20.63;52.86;100250.36;2402603;81;25204;-81
2021/08/23 03:58:17;;;;;;;2.52;1.42;;;;;;;20.61;52.87;100244.21;2401763;82;25228;-77
2021/08/23 04:01:41;;;;;;;2.55;1.95;;;;;;;20.61;52.94;100249.51;2388018;82;25812;-77
2021/08/23 04:05:03;;;;;;;1.40;1.30;;;;;;;20.62;52.88;100246.41;2406360;82;25708;-80
2021/08/23 04:08:24;;;;;;;2.10;1.90;;;;;;;20.58;52.82;100246.05;2404259;82;25961;-77
2021/08/23 04:11:44;;;;;;;1.90;1.65;;;;;;;20.58;52.83;100246.91;2406458;81;25987;-76
2021/08/23 04:15:06;;;;;;;2.77;1.50;;;;;;;20.62;52.72;100238.03;2406439;81;25592;-78
2021/08/23 04:18:30;;;;;;;2.80;1.67;;;;;;;20.60;52.76;100234.98;2405990;81;25704;-77
2021/08/23 04:21:53;;;;;;;4.47;1.40;;;;;;;20.58;52.71;100236.32;2405820;81;25682;-78
2021/08/23 04:25:15;;;;;;;1.82;1.70;;;;;;;20.57;52.67;100232.39;2406317;82;26371;-81
2021/08/23 04:28:36;;;;;;;2.05;1.40;;;;;;;20.60;52.72;100228.36;2406104;82;25674;-76
2021/08/23 04:31:56;;;;;;;3.42;1.67;;;;;;;20.65;52.61;100218.53;2406004;81;25201;-80
2021/08/23 04:35:18;;;;;;;2.00;1.40;;;;;;;20.65;52.58;100210.13;2406297;81;25650;-76
2021/08/23 04:38:39;;;;;;;2.47;1.82;;;;;;;20.66;52.56;100210.57;2403664;82;25816;-77
2021/08/23 04:42:12;;;;;;;3.40;1.37;;;;;;;20.73;52.47;100202.05;2403774;80;25248;-79
2021/08/23 04:45:33;;;;;;;8.15;1.57;;;;;;;20.81;52.30;100200.09;2402868;81;26009;-81
2021/08/23 04:48:53;;;;;;;3.15;2.10;;;;;;;20.84;52.24;100193.41;2399245;81;25685;-76
2021/08/23 04:52:15;;;;;;;3.70;1.30;;;;;;;20.84;52.22;100197.84;2393688;82;25152;-82
2021/08/23 04:55:36;;;;;;;4.65;1.77;;;;;;;20.82;52.24;100200.96;2398060;82;25627;-77
2021/08/23 04:58:57;;;;;;;3.62;1.80;;;;;;;20.85;52.21;100207.06;2396800;82;25667;-81
2021/08/23 05:02:18;;;;;;;1.60;1.50;;;;;;;20.88;52.22;100204.35;2398810;82;30826;-80
2021/08/23 05:05:44;;;;;;;6.72;1.65;;;;;;;20.89;52.17;100209.19;2399045;82;25531;-79
2021/08/23 05:09:05;;;;;;;1.85;1.47;;;;;;;20.90;52.18;100215.80;2398956;81;25758;-81
2021/08/23 05:12:26;;;;;;;2.62;1.80;;;;;;;20.93;52.14;100212.23;2399201;82;25164;-80
2021/08/23 05:15:47;;;;;;;5.95;1.50;;;;;;;20.94;52.07;100211.31;2394553;82;25710;-76
2021/08/23 05:19:08;;;;;;;2.00;1.65;;;;;;;20.96;52.03;100215.68;2398966;82;26181;-80
2021/08/23 05:22:29;;;;;;;1.95;1.57;;;;;;;20.99;51.99;100212.06;2398766;81;25713;-79
2021/08/23 05:25:49;;;;;;;2.70;1.55;;;;;;;20.96;52.09;100217.46;2398769;82;30946;-77
2021/08/23 05:32:16;;;;;;;2.72;1.40;;;;;;;21.05;52.06;100234.47;2528176;77;25418;-80
2021/08/23 05:35:34;;;;;;;4.08;1.95;;;;;;;21.01;52.08;100238.09;2470548;78;25633;-77
2021/08/23 05:38:55;;;;;;;2.98;2.12;;;;;;;21.05;52.07;100233.59;2471021;79;25684;-82
2021/08/23 05:42:16;;;;;;;8.00;1.65;;;;;;;21.07;52.08;100241.08;2422849;81;30792;-82
2021/08/23 05:45:45;;;;;;;4.20;1.67;;;;;;;21.13;52.00;100243.14;2402564;81;25744;-79
2021/08/23 05:49:07;;;;;;;3.17;1.62;;;;;;;21.17;51.91;100242.16;2404131;82;25693;-78
2021/08/23 05:52:27;;;;;;;4.85;1.45;;;;;;;21.21;51.82;100245.16;2404627;82;25685;-81
2021/08/23 05:55:48;;;;;;;5.30;2.05;;;;;;;21.34;51.96;100248.88;2415695;81;25593;-77
2021/08/23 05:59:09;;;;;;;4.25;1.70;;;;;;;21.34;51.96;100248.88;2431570;80;25151;-78
2021/08/23 06:02:30;;;;;;;3.27;1.30;;;;;;;21.38;51.74;100239.96;2433289;81;25641;-77
2021/08/23 06:05:51;;;;;;;7.15;1.87;;;;;;;21.37;51.68;100241.75;2432605;81;25632;-78
2021/08/23 06:09:15;;;;;;;3.98;1.55;;;;;;;21.37;51.72;100241.75;2427641;79;25239;-78
2021/08/23 06:12:36;;;;;;;3.33;1.65;;;;;;;21.40;51.69;100235.05;2433035;81;25632;-77
2021/08/23 06:15:58;;;;;;;5.62;2.10;;;;;;;21.38;51.62;100235.98;2432957;81;25568;-77
2021/08/23 06:19:18;;;;;;;8.60;2.22;;;;;;;21.39;51.69;100233.28;2432923;81;25802;-80
2021/08/23 06:22:40;;;;;;;3.47;1.77;;;;;;;21.40;51.64;100228.42;2433110;81;25878;-76
2021/08/23 06:26:07;;;;;;;3.12;2.00;;;;;;;21.38;51.73;100222.73;2429034;81;25679;-78
2021/08/23 06:29:28;;;;;;;5.00;1.80;;;;;;;21.47;51.74;100224.30;2427529;80;26383;-78
2021/08/23 06:33:18;;;;;;;3.58;1.60;;;;;;;21.50;51.70;100225.53;2416863;81;25669;-80
2021/08/23 06:36:45;;;;;;;3.72;2.05;;;;;;;21.54;51.65;100226.77;2419528;80;25676;-78
2021/08/23 06:40:08;;;;;;;3.72;2.08;;;;;;;21.60;51.59;100231.03;2421407;81;25676;-77
2021/08/23 06:43:30;;;;;;;3.27;2.12;;;;;;;21.63;51.49;100238.92;2421086;81;25729;-77
2021/08/23 06:46:52;;;;;;;5.12;2.10;;;;;;;21.66;51.35;100230.42;2420507;81;25641;-76
2021/08/23 06:50:14;;;;;;;7.25;2.90;;;;;;;21.70;51.40;100232.58;2420941;81;25585;-76
2021/08/23 06:53:35;;;;;;;2.70;2.45;;;;;;;21.81;51.44;100230.98;2420453;81;25877;-76
2021/08/23 06:56:56;;;;;;;2.33;2.12;;;;;;;21.85;51.29;100235.30;2417092;81;25692;-77
2021/08/23 07:00:17;;;;;;;5.25;2.20;;;;;;;21.91;51.23;100233.82;2413711;81;25637;-76
2021/08/23 07:03:38;;;;;;;8.38;2.62;;;;;;;21.93;51.12;100236.83;2420106;81;25203;-76
2021/08/23 07:07:04;;;;;;;10.50;2.45;;;;;;;21.98;51.15;100232.75;2418966;80;25185;-76
2021/08/23 07:10:25;;;;;;;8.88;2.50;;;;;;;22.04;51.00;100230.37;2421196;81;25799;-76
2021/08/23 07:13:47;;;;;;;5.92;2.30;;;;;;;22.11;50.93;100231.52;2420698;81;25600;-79
2021/08/23 07:17:08;;;;;;;3.52;2.37;;;;;;;22.23;50.91;100230.34;2421085;81;25721;-80
2021/08/23 07:20:29;;;;;;;2.55;1.85;;;;;;;22.30;50.81;100226.61;2421107;81;25214;-79
2021/08/23 07:23:50;;;;;;;4.60;2.30;;;;;;;22.37;50.65;100232.16;2420683;81;25743;-80
2021/08/23 07:27:12;;;;;;;5.30;2.00;;;;;;;22.38;50.69;100235.72;2421115;81;25637;-81
2021/08/23 07:30:33;;;;;;;6.87;2.12;;;;;;;22.47;50.60;100235.91;2420517;80;25569;-79
2021/08/23 07:33:54;;;;;;;2.30;2.10;;;;;;;22.52;50.61;100236.20;2417336;81;25610;-80
2021/08/23 07:37:21;;;;;;;8.10;2.25;;;;;;;22.58;50.56;100236.03;2379385;83;25603;-80
2021/08/23 07:40:44;;;;;;;7.00;2.65;;;;;;;22.59;50.56;100251.52;2416408;80;25623;-80
2021/08/23 07:44:05;;;;;;;5.95;2.72;;;;;;;22.68;50.57;100253.02;2416534;80;25914;-80
2021/08/23 07:47:32;;;;;;;3.20;1.95;;;;;;;22.70;50.52;100242.77;2405314;81;25518;-78
2021/08/23 07:50:53;;;;;;;9.83;2.05;;;;;;;22.75;50.61;100242.66;2397431;81;26069;-80
2021/08/23 07:54:16;;;;;;;9.78;2.10;;;;;;;22.94;50.89;100250.52;2404965;80;25759;-80
2021/08/23 07:57:46;;;;;;;6.08;3.05;;;;;;;23.05;50.44;100241.80;2417172;81;26280;-80
2021/08/23 08:01:09;;;;;;;2.98;2.00;;;;;;;23.21;50.36;100247.96;2411543;81;26371;-78
2021/08/23 08:04:30;;;;;;;9.10;1.80;;;;;;;23.26;50.42;100250.91;2419665;81;25725;-77
2021/08/23 08:07:51;;;;;;;4.95;2.52;;;;;;;23.40;50.42;100249.14;2419737;81;25646;-74
2021/08/23 08:11:12;;;;;;;6.25;2.65;;;;;;;23.43;49.96;100255.70;2420071;81;25711;-80
2021/08/23 08:14:33;;;;;;;4.83;2.58;;;;;;;23.39;49.82;100262.47;2396251;81;25680;-80
2021/08/23 08:17:54;;;;;;;3.47;2.22;;;;;;;23.41;49.51;100265.97;2378824;83;25491;-79
2021/08/23 08:21:29;;;;;;;2.35;2.10;;;;;;;23.29;49.42;100264.58;2378399;83;25177;-79
2021/08/23 08:24:49;;;;;;;2.70;2.12;;;;;;;23.32;49.61;100265.78;2352866;83;25859;-78
2021/08/23 08:28:13;;;;;;;6.85;2.47;;;;;;;23.25;49.49;100265.56;2393368;80;25664;-76
2021/08/23 08:31:35;;;;;;;7.40;3.67;;;;;;;23.31;49.37;100271.56;2402183;80;25874;-79
2021/08/23 08:35:00;;;;;;;6.00;2.70;;;;;;;23.38;49.23;100264.27;2375663;81;25452;-79
2021/08/23 08:38:23;;;;;;;3.22;1.90;;;;;;;23.32;49.21;100265.78;2374905;82;25158;-80
2021/08/23 08:41:44;;;;;;;4.10;2.67;;;;;;;23.34;49.17;100269.28;2369749;82;25455;-79
2021/08/23 08:45:07;;;;;;;7.55;2.77;;;;;;;23.23;49.26;100278.92;2400153;81;25385;-80
2021/08/23 08:48:29;;;;;;;5.90;2.65;;;;;;;23.29;49.51;100281.40;2416876;81;25195;-80
2021/08/23 08:51:51;;;;;;;3.42;2.45;;;;;;;23.33;49.16;100278.19;2445574;80;25267;-79
2021/08/23 08:55:18;;;;;;;2.55;2.20;;;;;;;23.41;49.17;100290.78;2452385;80;25584;-79
2021/08/23 08:58:45;;;;;;;7.55;2.70;;;;;;;23.45;48.98;100288.42;2418680;80;25877;-80
2021/08/23 09:02:08;;;;;;;4.55;2.42;;;;;;;23.43;48.76;100285.43;2417866;81;25669;-80
2021/08/23 09:05:52;;;;;;;7.35;2.52;;;;;;;23.34;48.83;100290.55;2414265;80;25670;-77
2021/08/23 09:09:21;;;;;;;4.05;2.27;;;;;;;23.35;48.87;100282.98;2431311;80;25215;-80
2021/08/23 09:12:43;;;;;;;6.42;2.40;;;;;;;23.32;48.80;100283.07;2428952;80;25608;-80
2021/08/23 09:16:05;;;;;;;5.45;2.55;;;;;;;23.20;48.87;100288.78;2395256;82;25706;-80
2021/08/23 09:19:28;;;;;;;9.25;4.22;;;;;;;23.19;48.83;100285.25;2395313;82;25796;-79
2021/08/23 09:22:54;;;;;;;6.20;2.85;;;;;;;23.20;49.06;100288.78;2379378;82;25925;-80
2021/08/23 09:26:17;;;;;;;2.75;2.40;;;;;;;23.23;49.12;100288.23;2378434;81;25849;-81
2021/08/23 09:30:00;;;;;;;5.08;2.85;;;;;;;23.23;49.21;100294.02;2377347;83;25626;-76
2021/08/23 09:33:23;;;;;;;4.90;2.42;;;;;;;23.30;49.10;100288.91;2388362;81;25714;-79
2021/08/23 09:36:43;;;;;;;8.48;2.77;;;;;;;23.31;49.10;100293.31;2405722;79;25557;-79
2021/08/23 09:40:12;;;;;;;3.50;3.10;;;;;;;23.35;49.10;100296.28;2391424;79;25866;-76
2021/08/23 09:43:35;;;;;;;2.65;2.45;;;;;;;23.37;49.17;100293.12;2407626;80;25877;-80
2021/08/23 09:47:05;;;;;;;5.90;2.95;;;;;;;23.34;49.01;100291.89;2366420;83;26093;-77
2021/08/23 09:50:26;;;;;;;4.78;2.58;;;;;;;23.36;49.22;100287.41;2364202;82;25667;-80
2021/08/23 09:53:47;;;;;;;7.17;2.80;;;;;;;23.38;49.15;100282.89;2410449;81;26504;-79
2021/08/23 09:57:11;;;;;;;2.67;2.40;;;;;;;23.44;49.23;100287.16;2403320;80;25633;-78
2021/08/23 10:00:33;;;;;;;3.25;2.55;;;;;;;23.38;49.24;100289.54;2398229;81;25924;-77
2021/08/23 10:03:53;;;;;;;8.35;3.60;;;;;;;23.41;49.37;100289.45;2398171;82;25706;-79
2021/08/23 10:07:14;;;;;;;9.63;3.30;;;;;;;23.46;49.38;100282.67;2382329;81;25757;-77
2021/08/23 10:10:43;;;;;;;6.83;3.25;;;;;;;23.51;49.39;100284.72;2363076;83;26317;-79
2021/08/23 10:14:06;;;;;;;13.32;3.40;;;;;;;23.49;49.51;100284.78;2358508;82;31251;-80
2021/08/23 10:17:43;;;;;;;12.23;2.95;;;;;;;23.46;49.64;100282.21;2450049;80;25667;-78
2021/08/23 10:21:09;;;;;;;12.47;3.45;;;;;;;23.44;49.66;100288.03;2441466;80;25683;-77
2021/08/23 10:24:42;;;;;;;15.00;3.87;;;;;;;23.43;49.71;100282.77;2447077;80;26455;-78
2021/08/23 10:28:12;;;;;;;9.10;3.80;;;;;;;23.43;49.92;100275.66;2408765;80;26098;-76
2021/08/23 10:31:37;;;;;;;11.10;4.10;;;;;;;23.46;49.96;100280.02;2404795;80;26359;-81
2021/08/23 10:35:23;;;;;;;12.13;3.25;;;;;;;23.44;49.94;100279.18;2410469;80;25825;-81
2021/08/23 10:38:48;;;;;;;21.65;4.15;;;;;;;23.46;49.98;100276.89;2433133;80;25680;-79
2021/08/23 10:42:38;;;;;;;16.00;4.33;;;;;;;23.49;50.13;100274.14;2477406;77;25764;-79
2021/08/23 10:46:07;;;;;;;7.67;3.27;;;;;;;23.48;50.24;100271.04;2497133;78;25675;-79
2021/08/23 10:49:46;;;;;;;10.85;4.20;;;;;;;23.49;50.27;100270.14;2486187;78;25897;-81
2021/08/23 10:53:14;;;;;;;14.15;3.90;;;;;;;23.51;50.42;100271.41;2497130;78;25927;-79
2021/08/23 10:56:38;;;;;;;;;;;;;;;23.54;50.43;100262.88;2511415;77;25706;-78
2021/08/23 11:00:11;;;;;;;13.00;4.55;;;;;;;;;;2511120;78;25499;-79
2021/08/23 11:03:32;;;;;;;11.35;4.42;;;;;;;23.50;50.74;100267.02;2510623;78;25890;-79
2021/08/23 11:06:53;;;;;;;15.72;4.00;;;;;;;23.40;51.18;100275.75;2482201;78;25623;-79
2021/08/23 11:10:26;;;;;;;20.88;3.83;;;;;;;23.33;51.45;100271.07;2497195;77;25841;-80
2021/08/23 11:13:48;;;;;;;7.95;4.00;;;;;;;23.36;51.63;100269.25;2532689;77;25182;-80
2021/08/23 11:17:09;;;;;;;4.22;3.15;;;;;;;23.37;51.54;100265.20;2507704;77;25877;-79
2021/08/23 11:20:35;;;;;;;13.80;3.90;;;;;;;23.32;51.70;100268.44;2506910;78;25936;-78
2021/08/23 11:24:14;;;;;;;5.97;2.95;;;;;;;23.30;51.98;100266.30;2482007;78;25727;-79
2021/08/23 11:27:46;;;;;;;3.05;2.75;;;;;;;23.34;52.04;100262.62;2290419;84;25952;-80
2021/08/23 11:31:07;;;;;;;3.70;3.30;;;;;;;23.29;52.22;100260.58;2279891;84;25746;-78
2021/08/23 11:34:29;;;;;;;5.50;2.92;;;;;;;23.29;52.45;100260.12;2323328;83;26158;-79
2021/08/23 11:38:06;;;;;;;8.63;3.00;;;;;;;23.27;52.66;100263.73;2327056;82;25670;-79
2021/08/23 11:41:27;;;;;;;11.33;3.37;;;;;;;23.26;52.81;100250.91;2339151;84;25686;-80
2021/08/23 11:45:24;;;;;;;3.85;2.37;;;;;;;23.23;53.04;100250.13;2335119;84;25765;-79
2021/08/23 11:48:55;;;;;;;3.75;3.25;;;;;;;23.14;53.31;100255.25;2340012;83;25991;-79
2021/08/23 11:52:58;;;;;;;3.40;3.10;;;;;;;23.05;53.68;100251.10;2328090;84;25439;-79
2021/08/23 11:56:21;;;;;;;4.53;2.72;;;;;;;23.02;53.89;100245.88;2330623;83;26017;-77
2021/08/23 12:00:13;;;;;;;6.30;3.30;;;;;;;23.05;54.12;100254.19;2321620;83;25430;-80
2021/08/23 12:03:43;;;;;;;4.85;3.67;;;;;;;23.03;54.43;100250.27;2351524;80;25824;-77
2021/08/23 12:07:05;;;;;;;8.25;3.25;;;;;;;22.95;54.87;100254.95;2485032;77;26233;-77
2021/08/23 12:10:36;;;;;;;4.58;3.83;;;;;;;22.92;55.04;100253.67;2534450;77;25481;-77
2021/08/23 12:14:05;;;;;;;5.60;3.50;;;;;;;22.90;55.41;100249.31;2499863;77;25490;-79
2021/08/23 12:17:42;;;;;;;6.55;3.92;;;;;;;22.87;55.63;100253.78;2495138;78;25643;-77
2021/08/23 12:21:28;;;;;;;5.00;3.52;;;;;;;22.86;55.66;100252.05;2493629;77;25770;-79
2021/08/23 12:25:25;;;;;;;5.05;3.58;;;;;;;22.89;55.88;100263.52;2476709;77;25674;-78
2021/08/23 12:28:49;;;;;;;4.72;3.72;;;;;;;22.78;56.13;100254.50;2482619;77;25681;-80
2021/08/23 12:32:18;;;;;;;7.72;4.10;;;;;;;22.67;56.45;100253.48;2481026;77;25696;-80
2021/08/23 12:35:44;;;;;;;;;;;;;;;22.60;56.79;100250.13;2458452;77;25689;-79
2021/08/23 12:39:05;;;;;;;5.50;3.67;;;;;;;22.58;57.13;100240.48;2477676;78;26222;-79
2021/08/23 12:42:28;;;;;;;3.67;3.30;;;;;;;22.60;56.97;100238.17;2510275;78;25620;-83
2021/08/23 12:45:49;;;;;;;4.30;3.65;;;;;;;22.54;56.96;100241.45;2509901;78;25616;-79
2021/08/23 12:49:11;;;;;;;4.00;3.70;;;;;;;22.45;57.36;100239.95;2510207;78;25694;-80
2021/08/23 12:52:35;;;;;;;7.08;3.33;;;;;;;22.37;57.50;100233.49;2510002;78;25862;-77
2021/08/23 12:55:56;;;;;;;3.65;3.27;;;;;;;22.33;57.68;100229.64;2426119;79;25658;-79
2021/08/23 12:59:20;;;;;;;7.42;3.85;;;;;;;22.32;57.78;100226.59;2402116;81;25593;-78
2021/08/23 13:02:41;;;;;;;19.12;4.28;;;;;;;22.35;57.76;100223.38;2369399;81;26127;-81
2021/08/23 13:06:08;;;;;;;13.88;5.15;;;;;;;22.32;57.76;100211.52;2379176;80;25769;-80
2021/08/23 13:09:43;;;;;;;28.83;6.53;;;;;;;22.27;57.85;100220.51;2373055;81;25666;-79
2021/08/23 13:13:40;;;;;;;;;;;;;;;;;;;;;
2021/08/23 13:16:55;;;;;;;32.73;5.70;;;;;;;22.30;57.79;100215.98;2347407;82;26053;-78
2021/08/23 13:20:16;;;;;;;14.35;4.47;;;;;;;22.29;57.92;100216.04;2333076;84;26346;-80
2021/08/23 13:23:37;;;;;;;28.47;5.45;;;;;;;22.27;57.90;100210.75;2342102;82;25774;-77
2021/08/23 13:27:01;;;;;;;22.45;5.17;;;;;;;22.26;58.05;100210.34;2371571;82;25890;-79
2021/08/23 13:30:22;;;;;;;8.63;3.98;;;;;;;22.24;58.10;100209.54;2363570;83;25816;-77
2021/08/23 13:33:43;;;;;;;8.15;3.98;;;;;;;22.16;58.06;100208.86;2367074;83;25922;-80
2021/08/23 13:37:07;;;;;;;5.97;4.15;;;;;;;22.18;58.15;100208.83;2368499;82;26023;-78
2021/08/23 13:40:35;;;;;;;4.97;4.03;;;;;;;22.11;58.31;100207.63;2371332;82;25992;-80
2021/08/23 13:43:56;;;;;;;3.98;3.55;;;;;;;22.02;58.39;100217.16;2369481;83;32047;-79
2021/08/23 13:47:17;;;;;;;5.60;3.90;;;;;;;22.00;58.63;100217.64;2377631;83;26034;-78
2021/08/23 13:50:40;;;;;;;4.40;3.70;;;;;;;22.13;58.75;100215.54;2404502;81;30925;-82
2021/08/23 13:54:01;;;;;;;8.95;4.22;;;;;;;22.15;58.63;100216.41;2418802;80;25655;-77
2021/08/23 13:57:21;;;;;;;9.68;4.80;;;;;;;22.13;59.12;100216.41;2419034;81;25655;-78
2021/08/23 14:00:42;;;;;;;7.03;5.05;;;;;;;22.16;58.99;100218.15;2418842;80;31334;-77
2021/08/23 14:04:06;;;;;;;6.78;5.10;;;;;;;22.11;59.63;100218.70;2418696;81;25693;-77
2021/08/23 14:07:27;;;;;;;6.72;4.80;;;;;;;22.12;59.52;100215.13;2419316;81;25737;-77
2021/08/23 14:10:48;;;;;;;6.00;5.40;;;;;;;22.20;59.81;100214.95;2410727;81;25514;-80
2021/08/23 14:14:20;;;;;;;6.60;4.60;;;;;;;22.10;59.75;100215.62;2408318;81;25575;-78
2021/08/23 14:17:41;;;;;;;6.28;4.62;;;;;;;22.06;60.15;100215.29;2466869;79;26368;-80
2021/08/23 14:21:06;;;;;;;9.13;4.45;;;;;;;22.00;60.26;100218.09;2424698;80;25675;-78
2021/08/23 14:24:39;;;;;;;4.92;4.28;;;;;;;22.01;60.28;100217.20;2432065;81;25711;-80
2021/08/23 14:28:00;;;;;;;10.72;4.25;;;;;;;21.98;60.46;100220.80;2418929;80;25999;-81
2021/08/23 14:31:36;;;;;;;6.22;4.45;;;;;;;21.95;60.48;100219.55;2388975;81;25536;-78
2021/08/23 14:35:20;;;;;;;4.35;3.95;;;;;;;21.91;60.66;100222.74;2404035;80;25652;-77
2021/08/23 14:38:53;;;;;;;5.87;4.55;;;;;;;21.90;60.81;100222.34;2371833;80;25586;-76
2021/08/23 14:42:16;;;;;;;4.28;3.90;;;;;;;21.94;60.57;100228.44;2357655;82;25972;-79
2021/08/23 14:45:42;;;;;;;5.70;4.30;;;;;;;21.99;60.74;100230.97;2381509;80;25897;-79
2021/08/23 14:49:07;;;;;;;4.53;3.70;;;;;;;21.97;60.63;100226.14;2416223;80;26173;-80
2021/08/23 14:52:36;;;;;;;4.90;4.50;;;;;;;22.00;60.68;100236.68;2427468;80;25792;-77
2021/08/23 14:56:06;;;;;;;4.65;4.10;;;;;;;21.97;60.58;100226.14;2399165;80;26502;-76
2021/08/23 14:59:45;;;;;;;5.83;3.80;;;;;;;21.93;60.54;100228.87;2396547;80;25740;-78
2021/08/23 15:03:06;;;;;;;3.65;3.35;;;;;;;21.86;60.58;100236.57;2441471;79;25712;-79
2021/08/23 15:06:33;;;;;;;5.97;4.08;;;;;;;21.80;60.69;100244.71;2439840;80;25720;-76
2021/08/23 15:10:03;;;;;;;4.33;3.92;;;;;;;21.86;60.76;100235.70;2417281;80;25684;-81
2021/08/23 15:13:26;;;;;;;7.53;4.85;;;;;;;21.88;60.85;100236.55;2456787;79;25680;-77
2021/08/23 15:16:47;;;;;;;4.72;4.33;;;;;;;21.85;60.92;100232.64;2457257;80;25636;-76
2021/08/23 15:20:10;;;;;;;4.28;3.75;;;;;;;21.77;61.15;100227.53;2457494;80;25203;-79
2021/08/23 15:23:31;;;;;;;3.65;3.35;;;;;;;21.83;61.27;100230.47;2435813;80;25810;-77
2021/08/23 15:26:52;;;;;;;4.28;3.70;;;;;;;21.78;61.23;100241.67;2448127;79;25659;-77
2021/08/23 15:30:13;;;;;;;5.22;3.70;;;;;;;21.74;61.56;100233.37;2443354;81;25896;-77
2021/08/23 15:33:35;;;;;;;4.17;3.77;;;;;;;21.76;61.49;100236.39;2468050;80;25656;-78
2021/08/23 15:36:58;;;;;;;4.72;4.33;;;;;;;21.81;61.54;100235.83;2442888;81;25815;-81
2021/08/23 15:40:19;;;;;;;4.78;4.08;;;;;;;21.77;61.53;100234.59;2468876;80;25745;-77
2021/08/23 15:43:40;;;;;;;5.33;4.10;;;;;;;21.77;61.57;100239.91;2442843;81;25608;-77
2021/08/23 15:47:01;;;;;;;18.55;5.33;;;;;;;21.79;61.59;100238.97;2468254;80;25741;-79
2021/08/23 15:50:22;;;;;;;6.45;4.60;;;;;;;21.77;61.46;100238.16;2443262;81;25762;-77
2021/08/23 15:53:43;;;;;;;4.12;3.80;;;;;;;21.73;61.58;100235.59;2467498;80;25675;-76
2021/08/23 15:57:07;;;;;;;4.60;3.87;;;;;;;21.83;61.67;100236.64;2409037;80;25763;-81
2021/08/23 16:00:29;;;;;;;5.08;3.50;;;;;;;21.79;61.62;100228.35;2382668;80;25595;-81